sensor_id;sensor_type;location;lat;lon;timestamp;P1;durP1;ratioP1;P2;durP2;ratioP2
30420;SDS011;17218;54.070;10.012;2022-12-19T00:01:01;21.97;;;13.27;;
30420;SDS011;17218;54.070;10.012;2022-12-19T00:03:30;24.93;;;12.80;;
30420;SDS011;17218;54.070;10.012;2022-12-19T00:05:59;22.70;;;12.53;;
30420;SDS011;17218;54.070;10.012;2022-12-19T00:08:27;22.63;;;11.03;;
30420;SDS011;17218;54.070;10.012;2022-12-19T00:10:54;20.87;;;11.57;;
30420;SDS011;17218;54.070;10.012;2022-12-19T00:13:22;23.77;;;12.83;;
30420;SDS011;17218;54.070;10.012;2022-12-19T00:15:48;22.87;;;12.43;;
30420;SDS011;17218;54.070;10.012;2022-12-19T00:18:16;22.50;;;12.90;;
30420;SDS011;17218;54.070;10.012;2022-12-19T00:20:43;23.90;;;13.20;;
30420;SDS011;17218;54.070;10.012;2022-12-19T00:23:10;21.03;;;12.27;;
30420;SDS011;17218;54.070;10.012;2022-12-19T00:25:36;23.87;;;13.17;;
30420;SDS011;17218;54.070;10.012;2022-12-19T00:28:03;25.23;;;12.20;;
30420;SDS011;17218;54.070;10.012;2022-12-19T00:30:29;24.90;;;13.03;;
30420;SDS011;17218;54.070;10.012;2022-12-19T00:32:57;25.17;;;11.57;;
30420;SDS011;17218;54.070;10.012;2022-12-19T00:35:25;21.90;;;12.43;;
30420;SDS011;17218;54.070;10.012;2022-12-19T00:37:51;22.20;;;11.50;;
30420;SDS011;17218;54.070;10.012;2022-12-19T00:40:18;25.60;;;12.93;;
30420;SDS011;17218;54.070;10.012;2022-12-19T00:42:45;20.07;;;11.37;;
30420;SDS011;17218;54.070;10.012;2022-12-19T00:45:11;20.90;;;11.77;;
30420;SDS011;17218;54.070;10.012;2022-12-19T00:47:38;21.83;;;12.30;;
30420;SDS011;17218;54.070;10.012;2022-12-19T00:50:05;20.37;;;11.43;;
30420;SDS011;17218;54.070;10.012;2022-12-19T00:52:33;26.57;;;13.70;;
30420;SDS011;17218;54.070;10.012;2022-12-19T00:55:00;21.50;;;11.13;;
30420;SDS011;17218;54.070;10.012;2022-12-19T00:57:26;21.20;;;11.77;;
30420;SDS011;17218;54.070;10.012;2022-12-19T00:59:53;22.93;;;12.07;;
30420;SDS011;17218;54.070;10.012;2022-12-19T01:02:19;24.70;;;12.40;;
30420;SDS011;17218;54.070;10.012;2022-12-19T01:04:46;21.03;;;11.97;;
30420;SDS011;17218;54.070;10.012;2022-12-19T01:07:13;22.33;;;11.47;;
30420;SDS011;17218;54.070;10.012;2022-12-19T01:09:41;24.97;;;12.93;;
30420;SDS011;17218;54.070;10.012;2022-12-19T01:12:09;20.47;;;11.90;;
30420;SDS011;17218;54.070;10.012;2022-12-19T01:14:53;19.27;;;11.47;;
30420;SDS011;17218;54.070;10.012;2022-12-19T01:17:21;21.60;;;11.33;;
30420;SDS011;17218;54.070;10.012;2022-12-19T01:19:48;22.37;;;12.70;;
30420;SDS011;17218;54.070;10.012;2022-12-19T01:22:14;19.93;;;11.23;;
30420;SDS011;17218;54.070;10.012;2022-12-19T01:24:42;22.20;;;11.53;;
30420;SDS011;17218;54.070;10.012;2022-12-19T01:27:09;21.20;;;11.33;;
30420;SDS011;17218;54.070;10.012;2022-12-19T01:29:36;19.07;;;11.07;;
30420;SDS011;17218;54.070;10.012;2022-12-19T01:32:02;23.60;;;12.37;;
30420;SDS011;17218;54.070;10.012;2022-12-19T01:34:29;21.30;;;11.87;;
30420;SDS011;17218;54.070;10.012;2022-12-19T01:36:55;19.90;;;9.37;;
30420;SDS011;17218;54.070;10.012;2022-12-19T01:39:22;20.60;;;12.07;;
30420;SDS011;17218;54.070;10.012;2022-12-19T01:41:50;21.23;;;10.90;;
30420;SDS011;17218;54.070;10.012;2022-12-19T01:44:17;21.50;;;11.67;;
30420;SDS011;17218;54.070;10.012;2022-12-19T01:46:43;22.83;;;13.03;;
30420;SDS011;17218;54.070;10.012;2022-12-19T01:49:13;21.93;;;12.63;;
30420;SDS011;17218;54.070;10.012;2022-12-19T01:51:44;22.13;;;11.93;;
30420;SDS011;17218;54.070;10.012;2022-12-19T01:54:14;19.83;;;11.17;;
30420;SDS011;17218;54.070;10.012;2022-12-19T01:56:47;21.00;;;10.97;;
30420;SDS011;17218;54.070;10.012;2022-12-19T01:59:19;24.00;;;11.70;;
30420;SDS011;17218;54.070;10.012;2022-12-19T02:01:49;19.60;;;10.57;;
30420;SDS011;17218;54.070;10.012;2022-12-19T02:04:19;14.53;;;10.90;;
30420;SDS011;17218;54.070;10.012;2022-12-19T02:06:46;19.97;;;10.90;;
30420;SDS011;17218;54.070;10.012;2022-12-19T02:09:15;23.47;;;12.13;;
30420;SDS011;17218;54.070;10.012;2022-12-19T02:11:42;20.37;;;11.30;;
30420;SDS011;17218;54.070;10.012;2022-12-19T02:14:10;19.90;;;11.43;;
30420;SDS011;17218;54.070;10.012;2022-12-19T02:16:39;20.40;;;11.30;;
30420;SDS011;17218;54.070;10.012;2022-12-19T02:22:22;17.50;;;11.20;;
30420;SDS011;17218;54.070;10.012;2022-12-19T02:25:00;18.57;;;10.70;;
30420;SDS011;17218;54.070;10.012;2022-12-19T02:30:54;19.40;;;10.87;;
30420;SDS011;17218;54.070;10.012;2022-12-19T02:33:31;17.87;;;11.47;;
30420;SDS011;17218;54.070;10.012;2022-12-19T02:36:04;19.77;;;10.13;;
30420;SDS011;17218;54.070;10.012;2022-12-19T02:38:38;18.30;;;10.17;;
30420;SDS011;17218;54.070;10.012;2022-12-19T02:41:12;18.30;;;10.33;;
30420;SDS011;17218;54.070;10.012;2022-12-19T02:43:43;20.33;;;10.73;;
30420;SDS011;17218;54.070;10.012;2022-12-19T02:46:15;21.67;;;11.57;;
30420;SDS011;17218;54.070;10.012;2022-12-19T02:48:44;18.57;;;11.57;;
30420;SDS011;17218;54.070;10.012;2022-12-19T02:51:12;22.20;;;11.83;;
30420;SDS011;17218;54.070;10.012;2022-12-19T02:53:38;15.90;;;9.20;;
30420;SDS011;17218;54.070;10.012;2022-12-19T02:59:12;17.17;;;9.43;;
30420;SDS011;17218;54.070;10.012;2022-12-19T03:01:48;16.97;;;10.10;;
30420;SDS011;17218;54.070;10.012;2022-12-19T03:04:24;19.07;;;11.30;;
30420;SDS011;17218;54.070;10.012;2022-12-19T03:06:59;17.03;;;10.83;;
30420;SDS011;17218;54.070;10.012;2022-12-19T03:09:34;19.00;;;10.77;;
30420;SDS011;17218;54.070;10.012;2022-12-19T03:12:07;18.77;;;11.63;;
30420;SDS011;17218;54.070;10.012;2022-12-19T03:14:39;19.97;;;10.50;;
30420;SDS011;17218;54.070;10.012;2022-12-19T03:17:08;20.73;;;10.47;;
30420;SDS011;17218;54.070;10.012;2022-12-19T03:19:35;20.07;;;11.00;;
30420;SDS011;17218;54.070;10.012;2022-12-19T03:22:04;19.30;;;10.57;;
30420;SDS011;17218;54.070;10.012;2022-12-19T03:24:32;18.87;;;10.30;;
30420;SDS011;17218;54.070;10.012;2022-12-19T03:27:06;18.20;;;10.47;;
30420;SDS011;17218;54.070;10.012;2022-12-19T03:29:36;20.17;;;10.63;;
30420;SDS011;17218;54.070;10.012;2022-12-19T03:32:09;20.73;;;10.63;;
30420;SDS011;17218;54.070;10.012;2022-12-19T03:34:42;22.53;;;11.20;;
30420;SDS011;17218;54.070;10.012;2022-12-19T03:37:13;21.23;;;11.57;;
30420;SDS011;17218;54.070;10.012;2022-12-19T03:39:44;19.90;;;10.57;;
30420;SDS011;17218;54.070;10.012;2022-12-19T03:42:12;17.50;;;10.13;;
30420;SDS011;17218;54.070;10.012;2022-12-19T03:44:57;17.70;;;10.60;;
30420;SDS011;17218;54.070;10.012;2022-12-19T03:47:26;18.40;;;11.27;;
30420;SDS011;17218;54.070;10.012;2022-12-19T03:49:58;19.23;;;10.33;;
30420;SDS011;17218;54.070;10.012;2022-12-19T03:52:26;17.70;;;9.93;;
30420;SDS011;17218;54.070;10.012;2022-12-19T03:55:00;18.70;;;11.90;;
30420;SDS011;17218;54.070;10.012;2022-12-19T03:57:35;16.13;;;10.13;;
30420;SDS011;17218;54.070;10.012;2022-12-19T04:00:07;21.27;;;11.17;;
30420;SDS011;17218;54.070;10.012;2022-12-19T04:02:38;20.23;;;10.37;;
30420;SDS011;17218;54.070;10.012;2022-12-19T04:05:09;17.73;;;10.40;;
30420;SDS011;17218;54.070;10.012;2022-12-19T04:07:38;17.20;;;11.13;;
30420;SDS011;17218;54.070;10.012;2022-12-19T04:10:07;19.77;;;10.97;;
30420;SDS011;17218;54.070;10.012;2022-12-19T04:12:37;17.97;;;10.63;;
30420;SDS011;17218;54.070;10.012;2022-12-19T04:15:07;17.90;;;10.23;;
30420;SDS011;17218;54.070;10.012;2022-12-19T04:17:43;20.00;;;11.67;;
30420;SDS011;17218;54.070;10.012;2022-12-19T04:20:14;20.33;;;11.73;;
30420;SDS011;17218;54.070;10.012;2022-12-19T04:22:43;20.80;;;11.70;;
30420;SDS011;17218;54.070;10.012;2022-12-19T04:25:15;15.97;;;10.43;;
30420;SDS011;17218;54.070;10.012;2022-12-19T04:27:46;18.90;;;10.03;;
30420;SDS011;17218;54.070;10.012;2022-12-19T04:30:17;19.90;;;10.50;;
30420;SDS011;17218;54.070;10.012;2022-12-19T04:32:46;21.57;;;11.43;;
30420;SDS011;17218;54.070;10.012;2022-12-19T04:35:14;19.73;;;11.17;;
30420;SDS011;17218;54.070;10.012;2022-12-19T04:37:41;23.73;;;12.43;;
30420;SDS011;17218;54.070;10.012;2022-12-19T04:40:09;20.00;;;11.60;;
30420;SDS011;17218;54.070;10.012;2022-12-19T04:42:36;19.20;;;10.57;;
30420;SDS011;17218;54.070;10.012;2022-12-19T04:45:03;18.97;;;11.03;;
30420;SDS011;17218;54.070;10.012;2022-12-19T04:47:31;20.57;;;11.13;;
30420;SDS011;17218;54.070;10.012;2022-12-19T04:49:59;20.97;;;11.03;;
30420;SDS011;17218;54.070;10.012;2022-12-19T04:52:25;19.00;;;11.17;;
30420;SDS011;17218;54.070;10.012;2022-12-19T04:54:52;21.10;;;12.03;;
30420;SDS011;17218;54.070;10.012;2022-12-19T04:57:19;20.73;;;12.37;;
30420;SDS011;17218;54.070;10.012;2022-12-19T04:59:45;22.17;;;13.27;;
30420;SDS011;17218;54.070;10.012;2022-12-19T05:02:12;18.77;;;11.57;;
30420;SDS011;17218;54.070;10.012;2022-12-19T05:04:39;23.47;;;12.80;;
30420;SDS011;17218;54.070;10.012;2022-12-19T05:07:07;19.10;;;11.23;;
30420;SDS011;17218;54.070;10.012;2022-12-19T05:09:36;22.47;;;12.07;;
30420;SDS011;17218;54.070;10.012;2022-12-19T05:12:03;19.00;;;11.87;;
30420;SDS011;17218;54.070;10.012;2022-12-19T05:14:30;20.13;;;11.63;;
30420;SDS011;17218;54.070;10.012;2022-12-19T05:16:57;20.90;;;11.80;;
30420;SDS011;17218;54.070;10.012;2022-12-19T05:19:24;18.57;;;11.20;;
30420;SDS011;17218;54.070;10.012;2022-12-19T05:21:50;17.40;;;10.57;;
30420;SDS011;17218;54.070;10.012;2022-12-19T05:24:18;20.83;;;11.57;;
30420;SDS011;17218;54.070;10.012;2022-12-19T05:26:46;21.43;;;10.77;;
30420;SDS011;17218;54.070;10.012;2022-12-19T05:29:13;20.43;;;10.90;;
30420;SDS011;17218;54.070;10.012;2022-12-19T05:31:40;20.80;;;12.53;;
30420;SDS011;17218;54.070;10.012;2022-12-19T05:34:06;19.67;;;11.27;;
30420;SDS011;17218;54.070;10.012;2022-12-19T05:36:33;20.07;;;11.70;;
30420;SDS011;17218;54.070;10.012;2022-12-19T05:39:00;18.93;;;10.40;;
30420;SDS011;17218;54.070;10.012;2022-12-19T05:41:28;18.13;;;11.43;;
30420;SDS011;17218;54.070;10.012;2022-12-19T05:43:54;22.73;;;11.90;;
30420;SDS011;17218;54.070;10.012;2022-12-19T05:46:22;21.33;;;11.17;;
30420;SDS011;17218;54.070;10.012;2022-12-19T05:48:50;19.53;;;11.77;;
30420;SDS011;17218;54.070;10.012;2022-12-19T05:51:17;18.50;;;11.30;;
30420;SDS011;17218;54.070;10.012;2022-12-19T05:53:44;19.97;;;12.20;;
30420;SDS011;17218;54.070;10.012;2022-12-19T05:56:12;18.30;;;10.83;;
30420;SDS011;17218;54.070;10.012;2022-12-19T05:58:41;19.67;;;10.87;;
30420;SDS011;17218;54.070;10.012;2022-12-19T06:01:09;22.53;;;12.33;;
30420;SDS011;17218;54.070;10.012;2022-12-19T06:03:37;19.97;;;12.40;;
30420;SDS011;17218;54.070;10.012;2022-12-19T06:06:06;21.10;;;11.50;;
30420;SDS011;17218;54.070;10.012;2022-12-19T06:08:34;22.23;;;13.53;;
30420;SDS011;17218;54.070;10.012;2022-12-19T06:11:01;20.87;;;12.17;;
30420;SDS011;17218;54.070;10.012;2022-12-19T06:13:30;19.57;;;11.83;;
30420;SDS011;17218;54.070;10.012;2022-12-19T06:15:58;19.90;;;11.30;;
30420;SDS011;17218;54.070;10.012;2022-12-19T06:18:26;23.83;;;12.27;;
30420;SDS011;17218;54.070;10.012;2022-12-19T06:20:55;20.50;;;11.80;;
30420;SDS011;17218;54.070;10.012;2022-12-19T06:23:22;18.40;;;11.90;;
30420;SDS011;17218;54.070;10.012;2022-12-19T06:25:49;19.07;;;11.67;;
30420;SDS011;17218;54.070;10.012;2022-12-19T06:28:15;17.00;;;11.17;;
30420;SDS011;17218;54.070;10.012;2022-12-19T06:30:42;18.07;;;11.00;;
30420;SDS011;17218;54.070;10.012;2022-12-19T06:33:10;19.47;;;12.03;;
30420;SDS011;17218;54.070;10.012;2022-12-19T06:35:37;20.13;;;11.37;;
30420;SDS011;17218;54.070;10.012;2022-12-19T06:38:04;21.13;;;12.20;;
30420;SDS011;17218;54.070;10.012;2022-12-19T06:40:30;21.53;;;11.73;;
30420;SDS011;17218;54.070;10.012;2022-12-19T06:43:14;21.63;;;12.90;;
30420;SDS011;17218;54.070;10.012;2022-12-19T06:45:41;18.70;;;11.40;;
30420;SDS011;17218;54.070;10.012;2022-12-19T06:48:07;17.97;;;11.83;;
30420;SDS011;17218;54.070;10.012;2022-12-19T06:50:35;20.63;;;11.63;;
30420;SDS011;17218;54.070;10.012;2022-12-19T06:53:05;19.43;;;11.80;;
30420;SDS011;17218;54.070;10.012;2022-12-19T06:55:31;21.37;;;11.33;;
30420;SDS011;17218;54.070;10.012;2022-12-19T06:58:03;19.00;;;12.03;;
30420;SDS011;17218;54.070;10.012;2022-12-19T07:00:30;19.83;;;11.97;;
30420;SDS011;17218;54.070;10.012;2022-12-19T07:03:02;16.00;;;9.93;;
30420;SDS011;17218;54.070;10.012;2022-12-19T07:05:32;21.40;;;11.73;;
30420;SDS011;17218;54.070;10.012;2022-12-19T07:08:00;22.73;;;11.83;;
30420;SDS011;17218;54.070;10.012;2022-12-19T07:10:26;19.70;;;11.87;;
30420;SDS011;17218;54.070;10.012;2022-12-19T07:12:53;21.20;;;12.53;;
30420;SDS011;17218;54.070;10.012;2022-12-19T07:15:20;19.40;;;11.53;;
30420;SDS011;17218;54.070;10.012;2022-12-19T07:17:47;18.37;;;12.30;;
30420;SDS011;17218;54.070;10.012;2022-12-19T07:20:14;20.43;;;12.83;;
30420;SDS011;17218;54.070;10.012;2022-12-19T07:22:41;21.77;;;13.20;;
30420;SDS011;17218;54.070;10.012;2022-12-19T07:25:10;19.53;;;12.70;;
30420;SDS011;17218;54.070;10.012;2022-12-19T07:27:37;23.87;;;12.67;;
30420;SDS011;17218;54.070;10.012;2022-12-19T07:30:04;22.17;;;12.67;;
30420;SDS011;17218;54.070;10.012;2022-12-19T07:32:32;19.73;;;12.73;;
30420;SDS011;17218;54.070;10.012;2022-12-19T07:34:59;19.87;;;11.90;;
30420;SDS011;17218;54.070;10.012;2022-12-19T07:37:26;20.70;;;12.90;;
30420;SDS011;17218;54.070;10.012;2022-12-19T07:39:53;21.13;;;13.10;;
30420;SDS011;17218;54.070;10.012;2022-12-19T07:42:21;22.00;;;13.60;;
30420;SDS011;17218;54.070;10.012;2022-12-19T07:44:47;23.00;;;14.13;;
30420;SDS011;17218;54.070;10.012;2022-12-19T07:47:14;24.67;;;13.93;;
30420;SDS011;17218;54.070;10.012;2022-12-19T07:49:41;23.67;;;13.10;;
30420;SDS011;17218;54.070;10.012;2022-12-19T07:52:07;21.50;;;13.07;;
30420;SDS011;17218;54.070;10.012;2022-12-19T07:54:37;20.93;;;13.43;;
30420;SDS011;17218;54.070;10.012;2022-12-19T07:57:05;24.63;;;12.97;;
30420;SDS011;17218;54.070;10.012;2022-12-19T07:59:33;22.77;;;12.10;;
30420;SDS011;17218;54.070;10.012;2022-12-19T08:02:00;21.80;;;13.20;;
30420;SDS011;17218;54.070;10.012;2022-12-19T08:04:26;20.40;;;11.80;;
30420;SDS011;17218;54.070;10.012;2022-12-19T08:06:53;20.13;;;13.43;;
30420;SDS011;17218;54.070;10.012;2022-12-19T08:09:20;22.57;;;13.07;;
30420;SDS011;17218;54.070;10.012;2022-12-19T08:11:46;22.57;;;12.87;;
30420;SDS011;17218;54.070;10.012;2022-12-19T08:14:13;19.07;;;10.33;;
30420;SDS011;17218;54.070;10.012;2022-12-19T08:16:41;22.10;;;13.73;;
30420;SDS011;17218;54.070;10.012;2022-12-19T08:19:08;21.07;;;13.23;;
30420;SDS011;17218;54.070;10.012;2022-12-19T08:21:34;21.40;;;12.83;;
30420;SDS011;17218;54.070;10.012;2022-12-19T08:24:01;23.83;;;13.63;;
30420;SDS011;17218;54.070;10.012;2022-12-19T08:26:28;20.43;;;11.93;;
30420;SDS011;17218;54.070;10.012;2022-12-19T08:28:56;22.37;;;12.77;;
30420;SDS011;17218;54.070;10.012;2022-12-19T08:31:23;21.67;;;12.80;;
30420;SDS011;17218;54.070;10.012;2022-12-19T08:33:53;22.83;;;11.40;;
30420;SDS011;17218;54.070;10.012;2022-12-19T08:36:21;22.07;;;12.90;;
30420;SDS011;17218;54.070;10.012;2022-12-19T08:38:49;22.43;;;13.33;;
30420;SDS011;17218;54.070;10.012;2022-12-19T08:41:16;20.00;;;12.43;;
30420;SDS011;17218;54.070;10.012;2022-12-19T08:43:46;22.67;;;13.77;;
30420;SDS011;17218;54.070;10.012;2022-12-19T08:46:14;23.53;;;14.77;;
30420;SDS011;17218;54.070;10.012;2022-12-19T08:48:42;22.43;;;12.43;;
30420;SDS011;17218;54.070;10.012;2022-12-19T08:51:10;21.10;;;12.90;;
30420;SDS011;17218;54.070;10.012;2022-12-19T08:53:38;23.07;;;13.73;;
30420;SDS011;17218;54.070;10.012;2022-12-19T08:56:07;23.60;;;13.47;;
30420;SDS011;17218;54.070;10.012;2022-12-19T08:58:36;23.47;;;12.63;;
30420;SDS011;17218;54.070;10.012;2022-12-19T09:01:04;21.53;;;12.50;;
30420;SDS011;17218;54.070;10.012;2022-12-19T09:03:33;21.67;;;12.97;;
30420;SDS011;17218;54.070;10.012;2022-12-19T09:06:00;21.97;;;13.80;;
30420;SDS011;17218;54.070;10.012;2022-12-19T09:08:30;17.80;;;11.93;;
30420;SDS011;17218;54.070;10.012;2022-12-19T09:10:57;22.57;;;13.73;;
30420;SDS011;17218;54.070;10.012;2022-12-19T09:13:24;21.37;;;12.60;;
30420;SDS011;17218;54.070;10.012;2022-12-19T09:15:57;21.87;;;12.90;;
30420;SDS011;17218;54.070;10.012;2022-12-19T09:18:25;23.70;;;13.23;;
30420;SDS011;17218;54.070;10.012;2022-12-19T09:20:52;21.40;;;14.20;;
30420;SDS011;17218;54.070;10.012;2022-12-19T09:23:19;23.07;;;13.37;;
30420;SDS011;17218;54.070;10.012;2022-12-19T09:25:48;20.87;;;12.93;;
30420;SDS011;17218;54.070;10.012;2022-12-19T09:28:15;20.93;;;12.50;;
30420;SDS011;17218;54.070;10.012;2022-12-19T09:30:41;24.63;;;14.43;;
30420;SDS011;17218;54.070;10.012;2022-12-19T09:33:08;25.30;;;14.60;;
30420;SDS011;17218;54.070;10.012;2022-12-19T09:35:34;25.27;;;13.80;;
30420;SDS011;17218;54.070;10.012;2022-12-19T09:38:01;22.00;;;13.10;;
30420;SDS011;17218;54.070;10.012;2022-12-19T09:40:29;24.43;;;13.53;;
30420;SDS011;17218;54.070;10.012;2022-12-19T09:43:12;20.97;;;13.90;;
30420;SDS011;17218;54.070;10.012;2022-12-19T09:45:50;20.40;;;13.33;;
30420;SDS011;17218;54.070;10.012;2022-12-19T09:48:26;24.10;;;14.17;;
30420;SDS011;17218;54.070;10.012;2022-12-19T09:50:54;20.97;;;13.80;;
30420;SDS011;17218;54.070;10.012;2022-12-19T09:53:26;22.03;;;13.17;;
30420;SDS011;17218;54.070;10.012;2022-12-19T09:55:58;18.50;;;12.37;;
30420;SDS011;17218;54.070;10.012;2022-12-19T09:58:30;21.00;;;13.57;;
30420;SDS011;17218;54.070;10.012;2022-12-19T10:01:01;24.77;;;13.77;;
30420;SDS011;17218;54.070;10.012;2022-12-19T10:03:33;20.97;;;12.73;;
30420;SDS011;17218;54.070;10.012;2022-12-19T10:06:04;18.73;;;11.63;;
30420;SDS011;17218;54.070;10.012;2022-12-19T10:08:37;20.47;;;12.80;;
30420;SDS011;17218;54.070;10.012;2022-12-19T10:11:09;20.93;;;13.10;;
30420;SDS011;17218;54.070;10.012;2022-12-19T10:13:51;19.90;;;12.10;;
30420;SDS011;17218;54.070;10.012;2022-12-19T10:16:29;18.40;;;11.93;;
30420;SDS011;17218;54.070;10.012;2022-12-19T10:19:02;20.77;;;12.40;;
30420;SDS011;17218;54.070;10.012;2022-12-19T10:21:34;16.43;;;11.33;;
30420;SDS011;17218;54.070;10.012;2022-12-19T10:24:12;20.00;;;12.37;;
30420;SDS011;17218;54.070;10.012;2022-12-19T10:26:51;16.93;;;11.30;;
30420;SDS011;17218;54.070;10.012;2022-12-19T10:29:33;18.60;;;11.03;;
30420;SDS011;17218;54.070;10.012;2022-12-19T10:32:13;20.63;;;12.20;;
30420;SDS011;17218;54.070;10.012;2022-12-19T10:34:46;19.93;;;12.77;;
30420;SDS011;17218;54.070;10.012;2022-12-19T10:37:16;16.90;;;11.73;;
30420;SDS011;17218;54.070;10.012;2022-12-19T10:39:49;19.67;;;12.50;;
30420;SDS011;17218;54.070;10.012;2022-12-19T10:42:25;17.63;;;10.57;;
30420;SDS011;17218;54.070;10.012;2022-12-19T10:45:00;17.43;;;11.60;;
30420;SDS011;17218;54.070;10.012;2022-12-19T10:47:29;19.37;;;11.07;;
30420;SDS011;17218;54.070;10.012;2022-12-19T10:49:57;19.33;;;12.00;;
30420;SDS011;17218;54.070;10.012;2022-12-19T10:55:36;17.90;;;11.50;;
30420;SDS011;17218;54.070;10.012;2022-12-19T10:58:17;14.90;;;9.53;;
30420;SDS011;17218;54.070;10.012;2022-12-19T11:00:57;17.33;;;11.37;;
30420;SDS011;17218;54.070;10.012;2022-12-19T11:03:29;14.97;;;10.53;;
30420;SDS011;17218;54.070;10.012;2022-12-19T11:05:56;16.53;;;11.30;;
30420;SDS011;17218;54.070;10.012;2022-12-19T11:08:24;16.10;;;9.90;;
30420;SDS011;17218;54.070;10.012;2022-12-19T11:10:52;18.87;;;11.83;;
30420;SDS011;17218;54.070;10.012;2022-12-19T11:13:21;18.60;;;10.53;;
30420;SDS011;17218;54.070;10.012;2022-12-19T11:15:50;15.27;;;10.90;;
30420;SDS011;17218;54.070;10.012;2022-12-19T11:18:20;17.50;;;10.80;;
30420;SDS011;17218;54.070;10.012;2022-12-19T11:20:54;20.77;;;12.30;;
30420;SDS011;17218;54.070;10.012;2022-12-19T11:23:23;18.17;;;12.33;;
30420;SDS011;17218;54.070;10.012;2022-12-19T11:25:53;17.30;;;10.90;;
30420;SDS011;17218;54.070;10.012;2022-12-19T11:28:23;18.47;;;11.17;;
30420;SDS011;17218;54.070;10.012;2022-12-19T11:31:00;19.93;;;11.67;;
30420;SDS011;17218;54.070;10.012;2022-12-19T11:33:31;14.17;;;10.07;;
30420;SDS011;17218;54.070;10.012;2022-12-19T11:35:59;16.57;;;11.10;;
30420;SDS011;17218;54.070;10.012;2022-12-19T11:38:35;20.80;;;12.23;;
30420;SDS011;17218;54.070;10.012;2022-12-19T11:41:09;12.43;;;8.73;;
30420;SDS011;17218;54.070;10.012;2022-12-19T11:43:43;18.00;;;11.67;;
30420;SDS011;17218;54.070;10.012;2022-12-19T11:46:20;17.00;;;11.10;;
30420;SDS011;17218;54.070;10.012;2022-12-19T11:48:54;16.67;;;10.77;;
30420;SDS011;17218;54.070;10.012;2022-12-19T11:51:27;15.93;;;10.70;;
30420;SDS011;17218;54.070;10.012;2022-12-19T11:53:59;18.13;;;12.13;;
30420;SDS011;17218;54.070;10.012;2022-12-19T11:56:31;17.50;;;9.73;;
30420;SDS011;17218;54.070;10.012;2022-12-19T11:58:58;18.83;;;11.27;;
30420;SDS011;17218;54.070;10.012;2022-12-19T12:01:39;18.87;;;12.00;;
30420;SDS011;17218;54.070;10.012;2022-12-19T12:04:19;18.63;;;12.03;;
30420;SDS011;17218;54.070;10.012;2022-12-19T12:07:05;18.40;;;11.20;;
30420;SDS011;17218;54.070;10.012;2022-12-19T12:09:34;20.63;;;13.37;;
30420;SDS011;17218;54.070;10.012;2022-12-19T12:12:14;20.23;;;13.00;;
30420;SDS011;17218;54.070;10.012;2022-12-19T12:14:54;22.57;;;13.70;;
30420;SDS011;17218;54.070;10.012;2022-12-19T12:17:36;18.50;;;12.20;;
30420;SDS011;17218;54.070;10.012;2022-12-19T12:20:18;19.23;;;12.27;;
30420;SDS011;17218;54.070;10.012;2022-12-19T12:23:01;18.33;;;12.10;;
30420;SDS011;17218;54.070;10.012;2022-12-19T12:25:41;18.90;;;11.57;;
30420;SDS011;17218;54.070;10.012;2022-12-19T12:28:20;17.30;;;11.40;;
30420;SDS011;17218;54.070;10.012;2022-12-19T12:31:07;16.47;;;11.20;;
30420;SDS011;17218;54.070;10.012;2022-12-19T12:33:51;17.60;;;12.47;;
30420;SDS011;17218;54.070;10.012;2022-12-19T12:36:28;17.10;;;11.70;;
30420;SDS011;17218;54.070;10.012;2022-12-19T12:39:10;19.30;;;12.37;;
30420;SDS011;17218;54.070;10.012;2022-12-19T12:41:41;26.07;;;12.87;;
30420;SDS011;17218;54.070;10.012;2022-12-19T12:44:29;18.47;;;11.67;;
30420;SDS011;17218;54.070;10.012;2022-12-19T12:47:00;18.30;;;11.77;;
30420;SDS011;17218;54.070;10.012;2022-12-19T12:49:36;20.37;;;11.47;;
30420;SDS011;17218;54.070;10.012;2022-12-19T12:52:07;17.53;;;11.23;;
30420;SDS011;17218;54.070;10.012;2022-12-19T12:54:37;18.73;;;11.83;;
30420;SDS011;17218;54.070;10.012;2022-12-19T12:57:12;16.83;;;12.07;;
30420;SDS011;17218;54.070;10.012;2022-12-19T12:59:44;19.10;;;12.43;;
30420;SDS011;17218;54.070;10.012;2022-12-19T13:02:13;15.70;;;11.30;;
30420;SDS011;17218;54.070;10.012;2022-12-19T13:04:52;17.10;;;12.10;;
30420;SDS011;17218;54.070;10.012;2022-12-19T13:07:27;18.43;;;12.27;;
30420;SDS011;17218;54.070;10.012;2022-12-19T13:10:13;17.30;;;11.33;;
30420;SDS011;17218;54.070;10.012;2022-12-19T13:12:53;18.93;;;12.27;;
30420;SDS011;17218;54.070;10.012;2022-12-19T13:15:35;18.77;;;11.70;;
30420;SDS011;17218;54.070;10.012;2022-12-19T13:20:56;17.10;;;11.90;;
30420;SDS011;17218;54.070;10.012;2022-12-19T13:26:45;17.97;;;12.30;;
30420;SDS011;17218;54.070;10.012;2022-12-19T13:29:28;14.20;;;11.27;;
30420;SDS011;17218;54.070;10.012;2022-12-19T13:32:10;19.80;;;12.83;;
30420;SDS011;17218;54.070;10.012;2022-12-19T13:34:39;17.70;;;12.07;;
30420;SDS011;17218;54.070;10.012;2022-12-19T13:37:27;19.67;;;11.90;;
30420;SDS011;17218;54.070;10.012;2022-12-19T13:39:58;16.20;;;11.73;;
30420;SDS011;17218;54.070;10.012;2022-12-19T13:42:31;19.97;;;12.17;;
30420;SDS011;17218;54.070;10.012;2022-12-19T13:45:29;15.57;;;10.97;;
30420;SDS011;17218;54.070;10.012;2022-12-19T13:47:57;16.07;;;11.63;;
30420;SDS011;17218;54.070;10.012;2022-12-19T13:50:27;18.50;;;12.73;;
30420;SDS011;17218;54.070;10.012;2022-12-19T13:52:56;17.70;;;12.13;;
30420;SDS011;17218;54.070;10.012;2022-12-19T13:55:23;17.60;;;12.10;;
30420;SDS011;17218;54.070;10.012;2022-12-19T13:57:54;17.83;;;11.83;;
30420;SDS011;17218;54.070;10.012;2022-12-19T14:00:28;19.30;;;13.50;;
30420;SDS011;17218;54.070;10.012;2022-12-19T14:02:58;19.07;;;12.50;;
30420;SDS011;17218;54.070;10.012;2022-12-19T14:05:28;20.10;;;13.20;;
30420;SDS011;17218;54.070;10.012;2022-12-19T14:07:57;18.80;;;13.10;;
30420;SDS011;17218;54.070;10.012;2022-12-19T14:10:28;20.17;;;13.87;;
30420;SDS011;17218;54.070;10.012;2022-12-19T14:12:59;20.43;;;13.60;;
30420;SDS011;17218;54.070;10.012;2022-12-19T14:15:46;20.17;;;13.27;;
30420;SDS011;17218;54.070;10.012;2022-12-19T14:18:18;21.73;;;14.50;;
30420;SDS011;17218;54.070;10.012;2022-12-19T14:20:46;19.67;;;14.10;;
30420;SDS011;17218;54.070;10.012;2022-12-19T14:23:13;19.60;;;13.70;;
30420;SDS011;17218;54.070;10.012;2022-12-19T14:25:41;20.63;;;14.13;;
30420;SDS011;17218;54.070;10.012;2022-12-19T14:28:15;21.13;;;14.90;;
30420;SDS011;17218;54.070;10.012;2022-12-19T14:30:45;19.37;;;14.70;;
30420;SDS011;17218;54.070;10.012;2022-12-19T14:33:16;21.10;;;14.40;;
30420;SDS011;17218;54.070;10.012;2022-12-19T14:35:46;22.77;;;15.33;;
30420;SDS011;17218;54.070;10.012;2022-12-19T14:38:15;22.50;;;15.10;;
30420;SDS011;17218;54.070;10.012;2022-12-19T14:40:43;23.53;;;16.07;;
30420;SDS011;17218;54.070;10.012;2022-12-19T14:43:12;22.57;;;16.37;;
30420;SDS011;17218;54.070;10.012;2022-12-19T14:46:11;24.23;;;16.60;;